Time;durP1;ratioP1;P1;durP2;ratioP2;P2;SDS_P1;SDS_P2;PMS_P1;PMS_P2;Temp;Humidity;BMP_temperature;BMP_pressure;BME280_temperature;BME280_humidity;BME280_pressure;Samples;Min_cycle;Max_cycle;Signal;HPM_P1;HPM_P2
2022/03/24 00:02:22;;;;;;;183.98;58.17;;;;;;;;;;5065378;28;20232;-90
2022/03/24 00:04:48;;;;;;;182.48;58.30;;;;;;;;;;5065269;28;20196;-91
2022/03/24 00:07:15;;;;;;;188.25;60.85;;;;;;;;;;5065191;28;20207;-90
2022/03/24 00:09:41;;;;;;;181.15;59.47;;;;;;;;;;5063115;28;20231;-90
2022/03/24 00:12:11;;;;;;;185.60;58.47;;;;;;;;;;5065244;28;20203;-89
2022/03/24 00:14:37;;;;;;;182.48;57.97;;;;;;;;;;5066211;28;20315;-89
2022/03/24 00:17:04;;;;;;;185.68;60.40;;;;;;;;;;5063970;28;20284;-88
2022/03/24 00:19:30;;;;;;;177.32;57.05;;;;;;;;;;5062860;28;20204;-89
2022/03/24 00:21:57;;;;;;;180.35;57.00;;;;;;;;;;5063960;28;20254;-89
2022/03/24 00:24:24;;;;;;;178.82;57.72;;;;;;;;;;5063868;28;20204;-88
2022/03/24 00:26:50;;;;;;;183.80;61.75;;;;;;;;;;5064274;28;20223;-89
2022/03/24 00:29:18;;;;;;;182.52;59.00;;;;;;;;;;5064489;28;20265;-88
2022/03/24 00:31:45;;;;;;;183.77;57.15;;;;;;;;;;5064879;28;20199;-88
2022/03/24 00:34:11;;;;;;;180.57;57.83;;;;;;;;;;5065962;28;20786;-88
2022/03/24 00:36:38;;;;;;;179.65;57.45;;;;;;;;;;5065578;28;20273;-87
2022/03/24 00:39:04;;;;;;;181.98;57.50;;;;;;;;;;5065303;28;20200;-90
2022/03/24 00:41:31;;;;;;;178.35;58.03;;;;;;;;;;5064182;28;20777;-89
2022/03/24 00:43:57;;;;;;;176.77;57.22;;;;;;;;;;5065746;28;20266;-89
2022/03/24 00:46:25;;;;;;;178.63;56.15;;;;;;;;;;5065445;28;20200;-88
2022/03/24 00:48:52;;;;;;;172.00;56.85;;;;;;;;;;5065514;28;20712;-88
2022/03/24 00:51:19;;;;;;;176.52;56.40;;;;;;;;;;5065672;28;20196;-89
2022/03/24 00:53:45;;;;;;;178.07;57.30;;;;;;;;;;5065550;28;20207;-90
2022/03/24 00:56:12;;;;;;;176.70;58.90;;;;;;;;;;5064263;28;20195;-89
2022/03/24 00:58:38;;;;;;;177.65;57.53;;;;;;;;;;5061949;28;20235;-89
2022/03/24 01:01:06;;;;;;;183.13;57.08;;;;;;;;;;5063242;28;20223;-88
2022/03/24 01:03:34;;;;;;;179.68;59.28;;;;;;;;;;5064945;28;20227;-90
2022/03/24 01:06:00;;;;;;;176.43;56.25;;;;;;;;;;5065393;28;20214;-88
2022/03/24 01:08:27;;;;;;;173.85;57.95;;;;;;;;;;5064798;28;20208;-89
2022/03/24 01:10:55;;;;;;;172.85;56.90;;;;;;;;;;5065093;28;20656;-89
2022/03/24 01:13:22;;;;;;;173.02;56.47;;;;;;;;;;5062677;28;20210;-89
2022/03/24 01:15:49;;;;;;;174.02;56.25;;;;;;;;;;5063549;28;20235;-89
2022/03/24 01:18:16;;;;;;;174.02;58.03;;;;;;;;;;5064523;28;20211;-89
2022/03/24 01:20:45;;;;;;;172.65;56.95;;;;;;;;;;5065139;28;20192;-89
2022/03/24 01:23:12;;;;;;;175.75;55.55;;;;;;;;;;5064415;28;20228;-89
2022/03/24 01:25:41;;;;;;;170.68;56.13;;;;;;;;;;5064592;28;20200;-89
2022/03/24 01:28:08;;;;;;;173.27;56.72;;;;;;;;;;5063627;28;20258;-89
2022/03/24 01:30:35;;;;;;;179.55;57.10;;;;;;;;;;5062124;28;20196;-88
2022/03/24 01:33:02;;;;;;;174.80;56.65;;;;;;;;;;5063618;28;20196;-88
2022/03/24 01:35:28;;;;;;;171.85;56.15;;;;;;;;;;5063690;28;20222;-87
2022/03/24 01:37:56;;;;;;;175.32;58.03;;;;;;;;;;5063995;28;20251;-89
2022/03/24 01:40:23;;;;;;;175.60;56.40;;;;;;;;;;5064140;28;20196;-89
2022/03/24 01:42:50;;;;;;;170.23;56.50;;;;;;;;;;5063121;28;20220;-89
2022/03/24 01:45:17;;;;;;;177.43;57.28;;;;;;;;;;5062600;28;20656;-89
2022/03/24 01:47:43;;;;;;;176.38;56.90;;;;;;;;;;5063603;28;20200;-88
2022/03/24 01:50:11;;;;;;;170.30;56.13;;;;;;;;;;5063691;28;20196;-88
2022/03/24 01:52:37;;;;;;;175.85;57.90;;;;;;;;;;5063754;28;20204;-88
2022/03/24 01:55:06;;;;;;;176.02;55.85;;;;;;;;;;5064028;28;21033;-89
2022/03/24 01:57:33;;;;;;;174.18;55.92;;;;;;;;;;5063317;28;20228;-89
2022/03/24 02:00:00;;;;;;;178.82;58.83;;;;;;;;;;5063382;28;20238;-88
2022/03/24 02:02:27;;;;;;;176.88;58.33;;;;;;;;;;5061245;28;20261;-88
2022/03/24 02:04:53;;;;;;;174.88;56.90;;;;;;;;;;5061558;28;20200;-88
2022/03/24 02:07:20;;;;;;;175.68;57.67;;;;;;;;;;5063161;28;20222;-88
2022/03/24 02:09:47;;;;;;;174.88;56.72;;;;;;;;;;5047566;28;20200;-89
2022/03/24 02:12:15;;;;;;;177.98;60.35;;;;;;;;;;5062663;28;20728;-89
2022/03/24 02:14:42;;;;;;;183.80;60.47;;;;;;;;;;5061291;28;20655;-89
2022/03/24 02:17:09;;;;;;;178.40;57.72;;;;;;;;;;5062281;28;20196;-89
2022/03/24 02:19:36;;;;;;;179.40;57.78;;;;;;;;;;5062473;28;20250;-89
2022/03/24 02:22:13;;;;;;;171.45;55.45;;;;;;;;;;5063011;28;20652;-89
2022/03/24 02:24:40;;;;;;;175.48;56.50;;;;;;;;;;5059003;28;20227;-89
2022/03/24 02:27:06;;;;;;;170.18;56.13;;;;;;;;;;5063161;28;20228;-89
2022/03/24 02:29:33;;;;;;;172.13;56.25;;;;;;;;;;5063611;28;20234;-89
2022/03/24 02:31:59;;;;;;;178.63;57.95;;;;;;;;;;5062753;28;20786;-89
2022/03/24 02:34:40;;;;;;;167.65;55.60;;;;;;;;;;5062226;28;20204;-90
2022/03/24 02:37:07;;;;;;;172.60;57.45;;;;;;;;;;5063369;28;20196;-89
2022/03/24 02:39:35;;;;;;;173.82;56.10;;;;;;;;;;5063796;28;20268;-89
2022/03/24 02:42:02;;;;;;;167.77;57.83;;;;;;;;;;5063147;28;20200;-90
2022/03/24 02:44:30;;;;;;;165.32;55.25;;;;;;;;;;5063642;28;20212;-89
2022/03/24 02:46:57;;;;;;;174.38;57.60;;;;;;;;;;5062792;28;20249;-89
2022/03/24 02:49:24;;;;;;;172.10;57.78;;;;;;;;;;5061914;28;20211;-89
2022/03/24 02:51:51;;;;;;;171.07;58.15;;;;;;;;;;5062755;28;20192;-89
2022/03/24 02:54:18;;;;;;;172.27;56.30;;;;;;;;;;5062713;28;20227;-90
2022/03/24 02:56:46;;;;;;;163.32;54.85;;;;;;;;;;5062672;28;20200;-89
2022/03/24 02:59:13;;;;;;;168.20;55.60;;;;;;;;;;5063132;28;20828;-88
2022/03/24 03:01:41;;;;;;;171.07;57.50;;;;;;;;;;5070291;28;20266;-89
2022/03/24 03:04:08;;;;;;;172.13;56.92;;;;;;;;;;5082807;28;20787;-89
2022/03/24 03:06:34;;;;;;;165.65;55.70;;;;;;;;;;5067200;28;20204;-91
2022/03/24 03:09:01;;;;;;;170.02;57.30;;;;;;;;;;5063130;28;20204;-90
2022/03/24 03:11:30;;;;;;;169.52;55.65;;;;;;;;;;5062837;28;20200;-89
2022/03/24 03:13:58;;;;;;;182.10;57.53;;;;;;;;;;5062756;28;20961;-89
2022/03/24 03:16:25;;;;;;;169.50;55.58;;;;;;;;;;5062737;28;20193;-90
2022/03/24 03:18:51;;;;;;;172.95;57.33;;;;;;;;;;5062552;28;20607;-90
2022/03/24 03:21:18;;;;;;;173.30;58.00;;;;;;;;;;5061564;28;20188;-90
2022/03/24 03:23:45;;;;;;;172.32;57.22;;;;;;;;;;5061944;28;20258;-89
2022/03/24 03:26:12;;;;;;;170.77;56.92;;;;;;;;;;5064124;28;20253;-89
2022/03/24 03:28:39;;;;;;;175.85;58.60;;;;;;;;;;5081080;28;20199;-89
2022/03/24 03:31:07;;;;;;;176.15;59.53;;;;;;;;;;5081197;28;20199;-89
2022/03/24 03:33:33;;;;;;;187.88;59.47;;;;;;;;;;5080468;28;20203;-89
2022/03/24 03:36:00;;;;;;;171.65;57.75;;;;;;;;;;5080271;28;20252;-89
2022/03/24 03:38:26;;;;;;;178.23;58.83;;;;;;;;;;5048145;28;20197;-89
2022/03/24 03:40:53;;;;;;;181.02;60.92;;;;;;;;;;5062319;28;20223;-89
2022/03/24 03:43:22;;;;;;;183.02;59.90;;;;;;;;;;5080840;28;20253;-90
2022/03/24 03:45:49;;;;;;;182.52;59.20;;;;;;;;;;5082224;28;20208;-90
2022/03/24 03:48:17;;;;;;;177.10;59.40;;;;;;;;;;5081058;28;20257;-89
2022/03/24 03:50:43;;;;;;;175.40;59.17;;;;;;;;;;5080479;28;20200;-89
2022/03/24 03:53:10;;;;;;;183.15;61.38;;;;;;;;;;5078451;28;20229;-89
2022/03/24 03:55:37;;;;;;;176.00;60.38;;;;;;;;;;5062095;28;20208;-89
2022/03/24 03:58:03;;;;;;;177.10;58.53;;;;;;;;;;5077332;28;20231;-89
2022/03/24 04:03:14;;;;;;;182.77;60.20;;;;;;;;;;5080330;28;20257;-89
2022/03/24 04:05:43;;;;;;;172.43;58.88;;;;;;;;;;5080644;28;20204;-89
2022/03/24 04:08:10;;;;;;;174.77;57.83;;;;;;;;;;5080154;28;20261;-89
2022/03/24 04:10:37;;;;;;;178.57;60.53;;;;;;;;;;5063933;28;20226;-89
2022/03/24 04:13:04;;;;;;;178.63;58.00;;;;;;;;;;5076746;28;20676;-90
2022/03/24 04:15:31;;;;;;;175.32;58.42;;;;;;;;;;5081947;28;20195;-89
2022/03/24 04:17:58;;;;;;;186.02;61.55;;;;;;;;;;5080677;28;20187;-89
2022/03/24 04:20:24;;;;;;;177.15;61.40;;;;;;;;;;5080218;28;20640;-89
2022/03/24 04:22:53;;;;;;;166.75;56.40;;;;;;;;;;5081628;28;20795;-89
2022/03/24 04:25:20;;;;;;;183.80;59.22;;;;;;;;;;5075773;28;20438;-89
2022/03/24 04:27:46;;;;;;;184.40;60.28;;;;;;;;;;5061217;28;20200;-89
2022/03/24 04:30:13;;;;;;;173.10;57.70;;;;;;;;;;5060984;28;20230;-90
2022/03/24 04:32:39;;;;;;;180.20;59.83;;;;;;;;;;5060336;28;20985;-89
2022/03/24 04:35:06;;;;;;;177.70;59.75;;;;;;;;;;5063309;28;20204;-90
2022/03/24 04:37:33;;;;;;;174.15;56.95;;;;;;;;;;5065479;28;20286;-90
2022/03/24 04:40:01;;;;;;;176.05;58.20;;;;;;;;;;5065165;28;20204;-89
2022/03/24 04:42:27;;;;;;;184.75;58.33;;;;;;;;;;5064670;28;20200;-89
2022/03/24 04:44:54;;;;;;;171.77;57.00;;;;;;;;;;5066188;28;20295;-90
2022/03/24 04:47:20;;;;;;;173.20;58.25;;;;;;;;;;5064912;28;20196;-89
2022/03/24 04:49:47;;;;;;;172.45;57.33;;;;;;;;;;5064859;28;20200;-90
2022/03/24 04:52:13;;;;;;;169.25;57.08;;;;;;;;;;5066044;28;20218;-89
2022/03/24 04:54:40;;;;;;;172.18;57.30;;;;;;;;;;5063226;28;20638;-90
2022/03/24 04:57:08;;;;;;;169.70;55.58;;;;;;;;;;5063946;28;20230;-90
2022/03/24 04:59:34;;;;;;;167.35;55.85;;;;;;;;;;5063996;28;20200;-90
2022/03/24 05:02:01;;;;;;;170.63;57.25;;;;;;;;;;5064711;28;20235;-89
2022/03/24 05:04:27;;;;;;;181.85;56.05;;;;;;;;;;5065413;28;20232;-89
2022/03/24 05:06:54;;;;;;;172.60;57.10;;;;;;;;;;5064778;28;20192;-89
2022/03/24 05:09:20;;;;;;;174.82;56.90;;;;;;;;;;5065025;28;20258;-89
2022/03/24 05:11:47;;;;;;;172.40;57.55;;;;;;;;;;5064946;28;20250;-89
2022/03/24 05:14:15;;;;;;;171.20;57.28;;;;;;;;;;5064425;28;20204;-88
2022/03/24 05:16:42;;;;;;;175.50;59.38;;;;;;;;;;5063121;28;20437;-89
2022/03/24 05:19:08;;;;;;;173.65;57.33;;;;;;;;;;5064443;28;20616;-89
2022/03/24 05:21:35;;;;;;;174.00;57.50;;;;;;;;;;5064541;28;20204;-89
2022/03/24 05:24:02;;;;;;;182.32;58.83;;;;;;;;;;5064794;28;20278;-89
2022/03/24 05:26:29;;;;;;;178.80;56.63;;;;;;;;;;5064478;28;20192;-89
2022/03/24 05:28:55;;;;;;;184.70;59.10;;;;;;;;;;5064555;28;20852;-89
2022/03/24 05:31:23;;;;;;;183.50;61.53;;;;;;;;;;5064424;28;20721;-89
2022/03/24 05:33:50;;;;;;;181.20;56.95;;;;;;;;;;5063826;28;20204;-89
2022/03/24 05:36:16;;;;;;;179.07;57.38;;;;;;;;;;5064522;28;20204;-89
2022/03/24 05:38:43;;;;;;;191.15;59.58;;;;;;;;;;5064146;28;20716;-89
2022/03/24 05:41:12;;;;;;;186.25;58.42;;;;;;;;;;5064001;28;20742;-89
2022/03/24 05:43:39;;;;;;;190.52;59.78;;;;;;;;;;5064224;28;20223;-89
2022/03/24 05:46:05;;;;;;;194.95;60.72;;;;;;;;;;5064198;28;20204;-88
2022/03/24 05:48:33;;;;;;;197.38;61.83;;;;;;;;;;5063219;28;20204;-90
2022/03/24 05:51:00;;;;;;;195.88;60.85;;;;;;;;;;5062316;28;20306;-89
2022/03/24 05:53:28;;;;;;;201.88;60.55;;;;;;;;;;5063055;28;20191;-89
2022/03/24 05:55:54;;;;;;;198.23;61.50;;;;;;;;;;5063129;28;20193;-89
2022/03/24 05:58:21;;;;;;;194.63;61.35;;;;;;;;;;5061389;28;20224;-89
2022/03/24 06:00:47;;;;;;;200.63;63.10;;;;;;;;;;5061843;28;20219;-88
2022/03/24 06:03:15;;;;;;;211.98;63.58;;;;;;;;;;5060463;28;20204;-90
2022/03/24 06:05:44;;;;;;;224.07;62.30;;;;;;;;;;5064100;28;20200;-89
2022/03/24 06:08:11;;;;;;;251.57;65.70;;;;;;;;;;5054372;28;20207;-88
2022/03/24 06:10:37;;;;;;;234.93;63.25;;;;;;;;;;5060601;28;20195;-88
2022/03/24 06:13:04;;;;;;;270.25;66.88;;;;;;;;;;5062807;28;20577;-88
2022/03/24 06:15:31;;;;;;;291.50;62.78;;;;;;;;;;5063580;28;20200;-89
2022/03/24 06:17:57;;;;;;;301.92;66.10;;;;;;;;;;5062804;28;20192;-90
2022/03/24 06:20:24;;;;;;;340.77;71.93;;;;;;;;;;5060451;28;20222;-91
2022/03/24 06:22:53;;;;;;;308.55;68.07;;;;;;;;;;5055753;28;20204;-89
2022/03/24 06:25:20;;;;;;;242.27;64.30;;;;;;;;;;5062184;28;20220;-90
2022/03/24 06:27:47;;;;;;;233.60;64.32;;;;;;;;;;5062972;28;20222;-89
2022/03/24 06:30:14;;;;;;;239.15;64.65;;;;;;;;;;5062699;28;20196;-89
2022/03/24 06:32:40;;;;;;;204.07;63.75;;;;;;;;;;5061689;28;20206;-90
2022/03/24 06:35:08;;;;;;;204.23;65.07;;;;;;;;;;5058310;28;20208;-89
2022/03/24 06:37:39;;;;;;;217.23;66.00;;;;;;;;;;5063158;28;20195;-90
2022/03/24 06:40:08;;;;;;;215.70;68.25;;;;;;;;;;5059774;28;20196;-89
2022/03/24 06:42:35;;;;;;;199.10;63.65;;;;;;;;;;5057363;28;20266;-89
2022/03/24 06:45:02;;;;;;;212.13;65.65;;;;;;;;;;5061822;28;20277;-90
2022/03/24 06:47:28;;;;;;;226.57;66.07;;;;;;;;;;5062536;28;20200;-90
2022/03/24 06:49:55;;;;;;;212.25;66.85;;;;;;;;;;5060925;28;20331;-89
2022/03/24 06:52:21;;;;;;;212.60;68.10;;;;;;;;;;5060874;28;20200;-90
2022/03/24 06:54:48;;;;;;;219.10;69.40;;;;;;;;;;5059587;28;20200;-89
2022/03/24 06:57:15;;;;;;;212.10;68.18;;;;;;;;;;5057306;28;20257;-89
2022/03/24 06:59:42;;;;;;;210.55;66.97;;;;;;;;;;5061520;28;20250;-90
2022/03/24 07:02:09;;;;;;;216.27;68.05;;;;;;;;;;5061133;28;20246;-90
2022/03/24 07:04:36;;;;;;;214.93;66.50;;;;;;;;;;5058129;28;20692;-89
2022/03/24 07:07:03;;;;;;;209.95;63.60;;;;;;;;;;5060484;28;20210;-90
2022/03/24 07:09:30;;;;;;;215.88;65.10;;;;;;;;;;5061078;28;20199;-90
2022/03/24 07:11:56;;;;;;;214.68;66.07;;;;;;;;;;5060055;28;21133;-89
2022/03/24 07:14:24;;;;;;;216.50;65.38;;;;;;;;;;5061069;28;20220;-89
2022/03/24 07:16:51;;;;;;;218.10;65.13;;;;;;;;;;5041706;28;20204;-89
2022/03/24 07:19:18;;;;;;;230.18;65.47;;;;;;;;;;5056848;28;20196;-89
2022/03/24 07:21:45;;;;;;;213.57;63.53;;;;;;;;;;5062001;28;20203;-90
2022/03/24 07:24:11;;;;;;;271.30;70.95;;;;;;;;;;5060568;28;20258;-89
2022/03/24 07:26:38;;;;;;;215.27;66.05;;;;;;;;;;5061003;28;20226;-90
2022/03/24 07:29:05;;;;;;;299.63;74.30;;;;;;;;;;5061620;28;20196;-91
2022/03/24 07:31:33;;;;;;;508.83;114.95;;;;;;;;;;5057087;28;20234;-90
2022/03/24 07:34:01;;;;;;;504.20;105.50;;;;;;;;;;5056317;28;20200;-89
2022/03/24 07:36:28;;;;;;;227.00;68.75;;;;;;;;;;5060655;28;20200;-89
2022/03/24 07:38:56;;;;;;;507.42;113.63;;;;;;;;;;5048917;28;20189;-89
2022/03/24 07:41:23;;;;;;;602.38;121.78;;;;;;;;;;5053232;28;20196;-89
2022/03/24 07:43:50;;;;;;;254.02;69.75;;;;;;;;;;5057852;28;20200;-89
2022/03/24 07:46:17;;;;;;;245.95;69.30;;;;;;;;;;5059957;28;20549;-91
2022/03/24 07:48:46;;;;;;;216.67;65.00;;;;;;;;;;5061010;28;20264;-90
2022/03/24 07:51:13;;;;;;;217.77;63.93;;;;;;;;;;5062017;28;20449;-89
2022/03/24 07:53:50;;;;;;;238.93;68.77;;;;;;;;;;5061376;28;20485;-90
2022/03/24 07:56:17;;;;;;;235.30;68.13;;;;;;;;;;5059648;28;20462;-89
2022/03/24 07:58:44;;;;;;;249.67;68.73;;;;;;;;;;5061890;28;20467;-92
2022/03/24 08:01:11;;;;;;;247.50;68.17;;;;;;;;;;5058523;28;20489;-89
2022/03/24 08:03:38;;;;;;;281.10;78.07;;;;;;;;;;5054460;28;20442;-91
2022/03/24 08:06:04;;;;;;;;;;;;;;;;;;5056758;28;20498;-90
2022/03/24 08:08:32;;;;;;;113.23;57.53;;;;;;;;;;5057173;28;20457;-90
2022/03/24 08:10:59;;;;;;;119.90;57.10;;;;;;;;;;5057956;28;20446;-90
2022/03/24 08:13:26;;;;;;;113.60;56.60;;;;;;;;;;5049094;28;20542;-89
2022/03/24 08:15:54;;;;;;;114.83;55.43;;;;;;;;;;5042855;28;20455;-91
2022/03/24 08:18:20;;;;;;;113.10;56.40;;;;;;;;;;5046928;28;20438;-90
2022/03/24 08:20:48;;;;;;;108.57;55.73;;;;;;;;;;5050248;28;20508;-91
2022/03/24 08:23:16;;;;;;;114.73;57.40;;;;;;;;;;5054656;28;20457;-91
2022/03/24 08:25:45;;;;;;;112.37;55.93;;;;;;;;;;5051532;28;20521;-90
2022/03/24 08:28:12;;;;;;;118.43;57.83;;;;;;;;;;5047370;28;20547;-88
2022/03/24 08:30:38;;;;;;;118.77;57.77;;;;;;;;;;5065231;28;20446;-91
2022/03/24 08:33:05;;;;;;;117.00;55.97;;;;;;;;;;5064833;28;20446;-90
2022/03/24 08:35:32;;;;;;;117.43;58.47;;;;;;;;;;5064772;28;20454;-89
2022/03/24 08:37:59;;;;;;;112.63;57.10;;;;;;;;;;5060318;28;20459;-90
2022/03/24 08:40:26;;;;;;;115.30;58.40;;;;;;;;;;5062768;28;20442;-89
2022/03/24 08:42:54;;;;;;;117.60;58.00;;;;;;;;;;5047693;28;20465;-91
2022/03/24 08:45:20;;;;;;;116.83;58.87;;;;;;;;;;5063110;28;20799;-91
2022/03/24 08:47:47;;;;;;;114.60;59.77;;;;;;;;;;5054381;28;20835;-91
2022/03/24 08:50:14;;;;;;;122.77;58.03;;;;;;;;;;5061468;28;20604;-91
2022/03/24 08:52:41;;;;;;;124.60;60.60;;;;;;;;;;5063821;28;20450;-92
2022/03/24 08:55:09;;;;;;;114.70;60.27;;;;;;;;;;5063749;28;20434;-90
2022/03/24 08:57:36;;;;;;;117.87;61.00;;;;;;;;;;5063680;28;21098;-91
2022/03/24 09:00:07;;;;;;;118.73;61.00;;;;;;;;;;5053761;28;20440;-90
2022/03/24 09:02:35;;;;;;;119.10;60.77;;;;;;;;;;5044012;28;20546;-91
2022/03/24 09:05:02;;;;;;;121.93;62.70;;;;;;;;;;5059585;28;20485;-89
2022/03/24 09:07:28;;;;;;;123.80;61.97;;;;;;;;;;5064639;28;20446;-90
2022/03/24 09:09:54;;;;;;;142.77;63.60;;;;;;;;;;5065119;28;20443;-88
2022/03/24 09:12:21;;;;;;;127.63;62.80;;;;;;;;;;5064152;28;20450;-89
2022/03/24 09:14:47;;;;;;;120.50;59.60;;;;;;;;;;5062865;28;20522;-91
2022/03/24 09:17:15;;;;;;;116.80;58.50;;;;;;;;;;5063405;28;20451;-91
2022/03/24 09:19:42;;;;;;;121.63;61.20;;;;;;;;;;5063856;28;20453;-88
2022/03/24 09:22:09;;;;;;;117.97;59.20;;;;;;;;;;5063905;28;20500;-89
2022/03/24 09:24:36;;;;;;;117.20;58.63;;;;;;;;;;5063913;28;20490;-89
2022/03/24 09:27:05;;;;;;;118.57;60.43;;;;;;;;;;5063630;28;20489;-92
2022/03/24 09:29:32;;;;;;;119.13;59.70;;;;;;;;;;5063502;28;20500;-90
2022/03/24 09:31:58;;;;;;;117.83;59.33;;;;;;;;;;5062942;28;20463;-91
2022/03/24 09:34:26;;;;;;;118.40;60.73;;;;;;;;;;5062614;28;20511;-90
2022/03/24 09:36:52;;;;;;;117.13;60.00;;;;;;;;;;5049669;28;20448;-89
2022/03/24 09:39:19;;;;;;;123.43;61.10;;;;;;;;;;5050521;28;20446;-92
2022/03/24 09:41:47;;;;;;;119.63;61.33;;;;;;;;;;5062703;28;20450;-90
2022/03/24 09:44:14;;;;;;;121.77;62.77;;;;;;;;;;5063404;28;20511;-91
2022/03/24 09:46:41;;;;;;;117.03;59.47;;;;;;;;;;5063739;28;20519;-93
2022/03/24 09:49:10;;;;;;;123.37;63.07;;;;;;;;;;5063967;28;21013;-88
2022/03/24 09:51:39;;;;;;;119.90;61.70;;;;;;;;;;5044329;28;20451;-91
2022/03/24 09:54:07;;;;;;;119.80;61.27;;;;;;;;;;5048966;28;20439;-91
2022/03/24 09:56:33;;;;;;;124.67;62.50;;;;;;;;;;5063664;28;20500;-90
2022/03/24 09:59:00;;;;;;;123.93;61.70;;;;;;;;;;5063552;28;20462;-94
2022/03/24 10:01:27;;;;;;;124.80;61.60;;;;;;;;;;5063324;28;20454;-89
2022/03/24 10:04:03;;;;;;;122.47;63.50;;;;;;;;;;5063464;28;20447;-88
2022/03/24 10:06:30;;;;;;;130.53;62.73;;;;;;;;;;5063350;28;20624;-91
2022/03/24 10:08:58;;;;;;;122.60;63.93;;;;;;;;;;5063492;28;20447;-91
2022/03/24 10:11:25;;;;;;;120.27;62.87;;;;;;;;;;5062966;28;20450;-88
2022/03/24 10:13:53;;;;;;;122.53;62.97;;;;;;;;;;5062575;28;20450;-90
2022/03/24 10:16:43;;;;;;;122.53;64.70;;;;;;;;;;5044999;28;20456;-89
2022/03/24 10:19:11;;;;;;;122.07;61.90;;;;;;;;;;5067546;28;20816;-89
2022/03/24 10:21:38;;;;;;;122.50;63.53;;;;;;;;;;5083234;28;20449;-91
2022/03/24 10:24:10;;;;;;;125.57;64.70;;;;;;;;;;5081439;28;20513;-92
2022/03/24 10:26:41;;;;;;;123.07;63.97;;;;;;;;;;5066161;28;21065;-92
2022/03/24 10:29:08;;;;;;;127.50;66.10;;;;;;;;;;5065164;28;20477;-91
2022/03/24 10:31:35;;;;;;;122.90;66.70;;;;;;;;;;5079866;28;20462;-92
2022/03/24 10:34:02;;;;;;;124.67;63.83;;;;;;;;;;5082578;28;20452;-89
2022/03/24 10:36:29;;;;;;;132.53;67.67;;;;;;;;;;5082716;28;20446;-91
2022/03/24 10:38:56;;;;;;;121.73;63.63;;;;;;;;;;5083228;28;20499;-90
2022/03/24 10:41:25;;;;;;;129.37;67.33;;;;;;;;;;5057686;28;20459;-90
2022/03/24 10:43:53;;;;;;;124.97;64.97;;;;;;;;;;5061513;28;20447;-88
2022/03/24 10:46:20;;;;;;;128.13;63.83;;;;;;;;;;5042025;28;20494;-93
2022/03/24 10:48:48;;;;;;;130.70;68.70;;;;;;;;;;5040899;28;20440;-92
2022/03/24 10:51:21;;;;;;;128.27;66.50;;;;;;;;;;5060035;28;20479;-88
2022/03/24 10:53:48;;;;;;;137.07;68.00;;;;;;;;;;5061029;28;20499;-92
2022/03/24 10:56:17;;;;;;;124.23;65.83;;;;;;;;;;5060636;28;20462;-92
2022/03/24 10:58:46;;;;;;;124.30;66.30;;;;;;;;;;5061495;28;20474;-91
2022/03/24 11:01:14;;;;;;;124.07;64.53;;;;;;;;;;5060547;28;20904;-90
2022/03/24 11:03:40;;;;;;;126.23;67.50;;;;;;;;;;5061094;28;20468;-91
2022/03/24 11:06:11;;;;;;;126.97;66.53;;;;;;;;;;5048316;28;20527;-92
2022/03/24 11:08:38;;;;;;;125.93;66.80;;;;;;;;;;5042161;28;20477;-91
2022/03/24 11:11:08;;;;;;;122.17;63.10;;;;;;;;;;5058073;28;20456;-91
2022/03/24 11:13:47;;;;;;;123.37;67.77;;;;;;;;;;5062267;28;20472;-91
2022/03/24 11:16:14;;;;;;;124.90;66.43;;;;;;;;;;5062275;28;20463;-91
2022/03/24 11:18:41;;;;;;;125.70;67.03;;;;;;;;;;5046098;28;20494;-92
2022/03/24 11:21:09;;;;;;;125.73;66.97;;;;;;;;;;5059084;28;20481;-91
2022/03/24 11:23:39;;;;;;;142.93;64.30;;;;;;;;;;5062976;28;20453;-91
2022/03/24 11:26:07;;;;;;;131.93;68.70;;;;;;;;;;5062292;28;20490;-92
2022/03/24 11:28:35;;;;;;;126.03;67.07;;;;;;;;;;5062521;28;20500;-90
2022/03/24 11:31:05;;;;;;;130.30;67.00;;;;;;;;;;5062372;28;20452;-90
2022/03/24 11:33:37;;;;;;;124.90;65.37;;;;;;;;;;5063170;28;20847;-87
2022/03/24 11:36:05;;;;;;;124.17;66.10;;;;;;;;;;5063638;28;20855;-93
2022/03/24 11:38:32;;;;;;;126.37;66.47;;;;;;;;;;5063256;28;20914;-91
2022/03/24 11:41:01;;;;;;;125.10;65.63;;;;;;;;;;5062503;28;20453;-90
2022/03/24 11:43:28;;;;;;;126.53;65.00;;;;;;;;;;5065751;28;20458;-94
2022/03/24 11:45:59;;;;;;;119.57;63.07;;;;;;;;;;5066689;28;20488;-92
2022/03/24 11:48:34;;;;;;;122.90;64.50;;;;;;;;;;5066262;28;20516;-91
2022/03/24 11:51:04;;;;;;;124.47;64.77;;;;;;;;;;5067138;28;20475;-92
2022/03/24 11:53:36;;;;;;;127.37;65.23;;;;;;;;;;5064041;28;20439;-90
2022/03/24 11:56:16;;;;;;;125.73;65.07;;;;;;;;;;5063352;28;20481;-91
2022/03/24 11:58:46;;;;;;;130.93;67.47;;;;;;;;;;5066436;28;20513;-88
2022/03/24 12:01:25;;;;;;;125.67;65.10;;;;;;;;;;5081638;28;20507;-89
2022/03/24 12:04:01;;;;;;;122.07;62.23;;;;;;;;;;5086957;28;20465;-88
2022/03/24 12:06:43;;;;;;;126.13;65.00;;;;;;;;;;5086094;28;20486;-87
2022/03/24 12:09:10;;;;;;;123.73;64.50;;;;;;;;;;5085866;28;20457;-90
2022/03/24 12:11:43;;;;;;;128.37;67.87;;;;;;;;;;5070160;28;20471;-90
2022/03/24 12:14:12;;;;;;;125.43;66.40;;;;;;;;;;5061300;28;20458;-91
2022/03/24 12:16:39;;;;;;;125.93;67.53;;;;;;;;;;5064086;28;20460;-89
2022/03/24 12:19:09;;;;;;;126.83;64.93;;;;;;;;;;5065823;28;20462;-91
2022/03/24 12:21:36;;;;;;;125.27;64.30;;;;;;;;;;5073119;28;20438;-91
2022/03/24 12:24:06;;;;;;;131.60;67.57;;;;;;;;;;5065911;28;20521;-89
2022/03/24 12:26:37;;;;;;;124.70;66.50;;;;;;;;;;5067291;28;20540;-91
2022/03/24 12:29:15;;;;;;;126.97;64.87;;;;;;;;;;5064806;28;20443;-90
2022/03/24 12:31:54;;;;;;;124.03;64.73;;;;;;;;;;5082387;28;20455;-90
2022/03/24 12:34:22;;;;;;;126.50;66.43;;;;;;;;;;5071562;28;20441;-91
2022/03/24 12:36:49;;;;;;;123.47;65.37;;;;;;;;;;5065701;28;20476;-92
2022/03/24 12:39:29;;;;;;;124.80;65.30;;;;;;;;;;5064321;28;20450;-90
2022/03/24 12:42:03;;;;;;;126.07;66.57;;;;;;;;;;5064573;28;20438;-93
2022/03/24 12:44:44;;;;;;;124.67;66.40;;;;;;;;;;5062818;28;20876;-91
2022/03/24 12:47:29;;;;;;;125.27;66.00;;;;;;;;;;5042849;28;20500;-90
2022/03/24 12:49:58;;;;;;;127.40;67.17;;;;;;;;;;5046721;28;20986;-91
2022/03/24 12:52:27;;;;;;;122.63;64.87;;;;;;;;;;5065461;28;21058;-88
2022/03/24 12:54:55;;;;;;;121.90;63.63;;;;;;;;;;5061998;28;20458;-88
2022/03/24 12:57:26;;;;;;;124.93;63.57;;;;;;;;;;5045269;28;21083;-88
2022/03/24 12:59:53;;;;;;;123.03;65.13;;;;;;;;;;5046428;28;20442;-90
2022/03/24 13:02:20;;;;;;;125.80;65.00;;;;;;;;;;5065425;28;20507;-88
2022/03/24 13:04:48;;;;;;;126.77;66.30;;;;;;;;;;5063963;28;20442;-89
2022/03/24 13:07:19;;;;;;;122.37;64.30;;;;;;;;;;5065582;28;20488;-89
2022/03/24 13:09:45;;;;;;;125.30;63.70;;;;;;;;;;5065544;28;20531;-90
2022/03/24 13:12:12;;;;;;;124.50;64.77;;;;;;;;;;5057654;28;20443;-90
2022/03/24 13:14:45;;;;;;;118.03;61.90;;;;;;;;;;5044980;28;20488;-92
2022/03/24 13:17:13;;;;;;;122.37;65.07;;;;;;;;;;5064140;28;20523;-92
2022/03/24 13:19:40;;;;;;;125.00;66.20;;;;;;;;;;5065038;28;20455;-90
2022/03/24 13:22:14;;;;;;;126.30;67.70;;;;;;;;;;5065378;28;20450;-90
2022/03/24 13:24:42;;;;;;;119.77;63.83;;;;;;;;;;5065787;28;20446;-90
2022/03/24 13:27:08;;;;;;;124.80;65.47;;;;;;;;;;5064963;28;20494;-90
2022/03/24 13:29:35;;;;;;;124.33;65.70;;;;;;;;;;5063154;28;20548;-89
2022/03/24 13:32:08;;;;;;;122.73;65.73;;;;;;;;;;5063506;28;20457;-91
2022/03/24 13:34:34;;;;;;;123.20;65.47;;;;;;;;;;5063271;28;20454;-89
2022/03/24 13:37:10;;;;;;;125.03;64.97;;;;;;;;;;5063196;28;20453;-88
2022/03/24 13:39:37;;;;;;;121.60;64.90;;;;;;;;;;5064526;28;20452;-90
2022/03/24 13:42:08;;;;;;;127.87;67.07;;;;;;;;;;5063967;28;20488;-90
2022/03/24 13:44:35;;;;;;;123.33;66.00;;;;;;;;;;5064015;28;20474;-93
2022/03/24 13:47:02;;;;;;;129.53;67.93;;;;;;;;;;5064543;28;20498;-92
2022/03/24 13:49:28;;;;;;;134.80;70.80;;;;;;;;;;5050430;28;20439;-89
2022/03/24 13:51:55;;;;;;;128.60;69.47;;;;;;;;;;5059461;28;20514;-90
2022/03/24 13:54:21;;;;;;;121.70;65.33;;;;;;;;;;5064616;28;20443;-91
2022/03/24 13:56:48;;;;;;;122.30;66.60;;;;;;;;;;5064095;28;20450;-89
2022/03/24 13:59:16;;;;;;;139.63;65.70;;;;;;;;;;5062985;28;20508;-90
2022/03/24 14:01:43;;;;;;;129.43;68.60;;;;;;;;;;5062810;28;20453;-89
2022/03/24 14:04:17;;;;;;;126.93;65.30;;;;;;;;;;5064892;28;20533;-87
2022/03/24 14:07:02;;;;;;;122.10;63.93;;;;;;;;;;5063128;28;21071;-88
2022/03/24 14:09:29;;;;;;;126.23;66.97;;;;;;;;;;5063166;28;20486;-92
2022/03/24 14:12:03;;;;;;;122.97;65.17;;;;;;;;;;5063247;28;20456;-91